Time;durP1;ratioP1;P1;durP2;ratioP2;P2;SDS_P1;SDS_P2;PMS_P1;PMS_P2;Temp;Humidity;BMP_temperature;BMP_pressure;BME280_temperature;BME280_humidity;BME280_pressure;Samples;Min_cycle;Max_cycle;Signal;HPM_P1;HPM_P2
2021/07/29 00:01:57;;;;;;;15.40;11.73;;;;;;;20.50;76.29;99087.45;1737472;82;21035;-67
2021/07/29 00:04:23;;;;;;;13.18;11.78;;;;;;;20.43;76.33;99080.34;1754568;81;21417;-67
2021/07/29 00:06:50;;;;;;;12.63;11.38;;;;;;;20.37;76.52;99071.27;1710067;83;21051;-66
2021/07/29 00:09:16;;;;;;;13.62;12.18;;;;;;;20.32;76.65;99076.47;1746897;82;21446;-67
2021/07/29 00:11:43;;;;;;;14.47;11.80;;;;;;;20.29;76.81;99076.60;1744108;82;21015;-66
2021/07/29 00:14:09;;;;;;;13.78;12.03;;;;;;;20.29;77.14;99068.31;1730417;80;21006;-68
2021/07/29 00:16:48;;;;;;;13.55;11.40;;;;;;;20.33;77.51;99069.19;1732350;82;21467;-69
2021/07/29 00:19:05;;;;;;;13.95;10.75;;;;;;;20.37;77.70;99067.91;1738913;82;21003;-68
2021/07/29 00:21:32;;;;;;;12.95;11.53;;;;;;;20.39;77.81;99069.75;1733905;82;21565;-67
2021/07/29 00:23:59;;;;;;;14.90;11.25;;;;;;;20.42;77.50;99074.58;1740388;82;20951;-68
2021/07/29 00:26:28;;;;;;;15.53;11.63;;;;;;;20.46;77.08;99074.67;1750669;82;21054;-68
2021/07/29 00:28:54;;;;;;;14.53;11.80;;;;;;;20.47;76.79;99081.25;1729330;82;21465;-67
2021/07/29 00:31:24;;;;;;;13.20;11.00;;;;;;;20.45;76.59;99089.64;1726979;82;21054;-67
2021/07/29 00:33:49;;;;;;;14.95;11.00;;;;;;;20.41;76.55;99091.50;1723806;82;20987;-68
2021/07/29 00:36:22;;;;;;;14.53;11.43;;;;;;;20.35;76.55;99091.77;1723946;82;21106;-68
2021/07/29 00:38:48;;;;;;;14.35;12.07;;;;;;;20.29;76.46;99098.72;1723621;82;21584;-68
2021/07/29 00:41:15;;;;;;;17.12;12.20;;;;;;;20.16;76.62;99092.95;1748395;82;21516;-68
2021/07/29 00:43:42;;;;;;;13.48;12.07;;;;;;;20.05;77.05;99089.06;1753097;82;21014;-68
2021/07/29 00:46:08;;;;;;;15.00;12.53;;;;;;;20.04;77.27;99099.91;1734504;82;21468;-68
2021/07/29 00:48:37;;;;;;;17.70;12.43;;;;;;;20.07;77.36;99103.92;1752871;82;21003;-68
2021/07/29 00:51:03;;;;;;;14.47;11.22;;;;;;;20.07;77.42;99105.30;1722313;82;21051;-68
2021/07/29 00:53:30;;;;;;;13.98;12.20;;;;;;;20.08;77.37;99108.30;1752941;82;21015;-68
2021/07/29 00:55:56;;;;;;;12.98;11.75;;;;;;;20.05;77.42;99105.64;1728920;82;21592;-68
2021/07/29 00:58:22;;;;;;;15.23;11.83;;;;;;;20.02;77.60;99098.05;1753246;82;21039;-68
2021/07/29 01:00:49;;;;;;;12.60;11.28;;;;;;;20.03;77.79;99098.29;1747671;82;21485;-68
2021/07/29 01:03:15;;;;;;;15.88;12.78;;;;;;;20.06;77.91;99100.92;1736779;81;21000;-69
2021/07/29 01:05:42;;;;;;;13.78;12.05;;;;;;;20.07;77.86;99106.11;1709282;82;21864;-68
2021/07/29 01:08:08;;;;;;;14.85;12.23;;;;;;;20.10;77.86;99112.89;1709913;82;21008;-68
2021/07/29 01:10:35;;;;;;;15.72;12.63;;;;;;;20.06;77.99;99114.16;1730097;82;21486;-68
2021/07/29 01:13:02;;;;;;;14.75;12.82;;;;;;;20.01;78.17;99112.23;1739160;82;21492;-68
2021/07/29 01:15:29;;;;;;;15.38;12.98;;;;;;;20.00;78.27;99114.76;1737962;82;21044;-68
2021/07/29 01:18:00;;;;;;;16.45;13.70;;;;;;;19.99;78.20;99113.95;1738862;82;21059;-68
2021/07/29 01:20:27;;;;;;;14.53;13.00;;;;;;;19.97;78.23;99113.52;1724235;82;21055;-68
2021/07/29 01:22:54;;;;;;;13.75;11.53;;;;;;;19.95;78.34;99108.08;1723784;82;21518;-68
2021/07/29 01:25:20;;;;;;;14.40;11.95;;;;;;;19.93;78.44;99111.21;1733244;82;21008;-68
2021/07/29 01:27:46;;;;;;;16.35;12.73;;;;;;;19.92;78.69;99110.16;1656963;82;21036;-68
2021/07/29 01:30:14;;;;;;;22.27;12.88;;;;;;;19.92;78.90;99112.35;1738929;82;21075;-68
2021/07/29 01:32:41;;;;;;;13.43;12.00;;;;;;;19.96;79.06;99106.94;1718220;82;21024;-68
2021/07/29 01:35:08;;;;;;;13.85;11.85;;;;;;;20.01;79.03;99113.05;1737002;82;21466;-68
2021/07/29 01:37:42;;;;;;;16.93;12.15;;;;;;;20.07;78.96;99120.50;1738610;82;21160;-68
2021/07/29 01:40:09;;;;;;;17.87;12.88;;;;;;;20.10;78.91;99116.46;1736814;82;21409;-68
2021/07/29 01:42:36;;;;;;;13.93;11.80;;;;;;;20.07;78.89;99110.26;1738717;82;21538;-68
2021/07/29 01:45:03;;;;;;;13.53;11.45;;;;;;;20.06;78.92;99108.64;1738919;82;20996;-68
2021/07/29 01:47:29;;;;;;;13.80;11.22;;;;;;;20.06;78.98;99106.45;1719203;82;21071;-68
2021/07/29 01:49:56;;;;;;;16.02;12.05;;;;;;;20.03;79.01;99100.25;1711802;82;20995;-67
2021/07/29 01:52:22;;;;;;;14.78;12.05;;;;;;;20.01;79.01;99106.70;1709816;82;21019;-68
2021/07/29 01:54:49;;;;;;;13.32;11.78;;;;;;;20.03;78.93;99103.01;1711826;82;21027;-67
2021/07/29 01:57:15;;;;;;;13.15;11.55;;;;;;;20.08;78.77;99098.63;1709673;82;21048;-68
2021/07/29 01:59:41;;;;;;;13.50;11.53;;;;;;;20.12;78.57;99092.03;1735601;82;20987;-67
2021/07/29 02:02:08;;;;;;;15.40;11.97;;;;;;;20.14;78.36;99086.98;1737940;82;21534;-68
2021/07/29 02:04:35;;;;;;;15.80;12.25;;;;;;;20.14;78.36;99087.55;1733808;81;20998;-68
2021/07/29 02:07:02;;;;;;;15.13;12.00;;;;;;;20.16;78.35;99084.66;1725008;82;21054;-67
2021/07/29 02:09:29;;;;;;;12.33;10.90;;;;;;;20.14;78.34;99083.41;1744584;82;21516;-68
2021/07/29 02:11:57;;;;;;;13.43;11.25;;;;;;;20.12;78.24;99080.20;1738709;82;21027;-68
2021/07/29 02:14:24;;;;;;;13.55;11.80;;;;;;;20.09;78.22;99076.16;1752445;82;20999;-68
2021/07/29 02:16:50;;;;;;;12.65;11.33;;;;;;;20.09;78.28;99073.97;1737987;82;21042;-69
2021/07/29 02:19:17;;;;;;;17.48;11.88;;;;;;;20.14;78.35;99079.27;1723740;82;21050;-68
2021/07/29 02:21:44;;;;;;;12.63;11.33;;;;;;;20.19;78.27;99071.52;1730848;82;21596;-68
2021/07/29 02:24:12;;;;;;;14.55;11.73;;;;;;;20.23;78.18;99065.52;1741020;82;20983;-68
2021/07/29 02:26:38;;;;;;;14.90;11.75;;;;;;;20.25;78.23;99070.13;1729007;82;21030;-68
2021/07/29 02:29:04;;;;;;;13.25;11.85;;;;;;;20.28;78.20;99068.65;1743471;82;21038;-68
2021/07/29 02:31:33;;;;;;;13.28;11.88;;;;;;;20.25;78.32;99066.56;1735932;82;20999;-68
2021/07/29 02:33:59;;;;;;;15.38;12.15;;;;;;;20.29;78.40;99074.41;1743613;82;21019;-68
2021/07/29 02:36:25;;;;;;;12.93;11.53;;;;;;;20.36;78.14;99066.32;1741167;82;21024;-68
2021/07/29 02:38:52;;;;;;;13.40;11.90;;;;;;;20.43;78.01;99065.70;1746915;82;21014;-68
2021/07/29 02:41:19;;;;;;;13.43;11.63;;;;;;;20.49;77.87;99069.81;1729408;82;21070;-68
2021/07/29 02:43:46;;;;;;;15.45;11.60;;;;;;;20.52;77.75;99063.58;1741621;82;21058;-68
2021/07/29 02:46:13;;;;;;;14.23;12.00;;;;;;;20.51;77.67;99059.23;1733723;82;21035;-68
2021/07/29 02:48:39;;;;;;;16.35;11.78;;;;;;;20.45;77.58;99056.47;1730814;82;21018;-68
2021/07/29 02:51:07;;;;;;;14.30;11.57;;;;;;;20.45;77.62;99060.62;1742431;82;21098;-67
2021/07/29 02:53:34;;;;;;;12.90;11.60;;;;;;;20.51;77.60;99064.76;1733696;82;21496;-68
2021/07/29 02:56:02;;;;;;;14.70;12.28;;;;;;;20.57;77.60;99045.36;1738375;82;21177;-68
2021/07/29 02:58:29;;;;;;;14.65;11.73;;;;;;;20.64;77.64;99037.25;1750582;82;21332;-68
2021/07/29 03:00:55;;;;;;;13.88;11.85;;;;;;;20.66;77.46;99033.55;1750621;82;21058;-68
2021/07/29 03:03:22;;;;;;;16.75;11.95;;;;;;;20.66;77.47;99031.59;1724341;82;21123;-68
2021/07/29 03:05:48;;;;;;;12.90;11.60;;;;;;;20.72;77.33;99034.33;1721288;82;21483;-68
2021/07/29 03:08:14;;;;;;;16.27;11.90;;;;;;;20.78;76.98;99030.71;1738798;82;21012;-67
2021/07/29 03:10:46;;;;;;;13.70;11.70;;;;;;;20.79;76.57;99024.84;1735477;82;21875;-68
2021/07/29 03:13:13;;;;;;;15.38;11.93;;;;;;;20.80;76.51;99027.80;1722432;82;21532;-68
2021/07/29 03:15:41;;;;;;;15.30;12.00;;;;;;;20.80;76.32;99021.47;1729122;82;20968;-68
2021/07/29 03:18:08;;;;;;;13.60;12.20;;;;;;;20.78;76.34;99016.88;1734461;82;21431;-68
2021/07/29 03:20:34;;;;;;;14.45;12.25;;;;;;;20.79;76.43;99015.73;1732592;82;21004;-68
2021/07/29 03:23:00;;;;;;;14.73;13.18;;;;;;;20.76;76.44;99022.75;1738848;82;20988;-68
2021/07/29 03:25:27;;;;;;;18.00;13.48;;;;;;;20.75;76.49;99017.59;1737995;82;21055;-68
2021/07/29 03:27:54;;;;;;;14.73;13.20;;;;;;;20.81;76.41;99023.08;1708267;82;21553;-67
2021/07/29 03:30:20;;;;;;;15.30;13.70;;;;;;;20.85;76.37;99026.17;1731712;82;21011;-68
2021/07/29 03:32:47;;;;;;;16.23;13.90;;;;;;;20.91;76.29;99026.69;1732889;82;21520;-68
2021/07/29 03:35:13;;;;;;;17.57;13.93;;;;;;;20.97;76.18;99023.90;1736768;82;21063;-68
2021/07/29 03:37:39;;;;;;;20.20;14.03;;;;;;;21.01;76.07;99025.37;1727307;82;21526;-68
2021/07/29 03:40:09;;;;;;;18.85;15.20;;;;;;;21.07;76.15;99022.55;1707496;82;21004;-68
2021/07/29 03:42:36;;;;;;;15.30;13.53;;;;;;;21.14;76.08;99029.67;1713788;82;21008;-68
2021/07/29 03:45:04;;;;;;;17.67;13.93;;;;;;;21.15;76.15;99021.59;1727305;82;21058;-68
2021/07/29 03:47:31;;;;;;;17.27;14.33;;;;;;;21.24;76.25;99027.73;1721416;82;21028;-68
2021/07/29 03:49:57;;;;;;;16.00;14.25;;;;;;;21.46;76.58;99028.47;1726856;82;21518;-68
2021/07/29 03:52:23;;;;;;;18.67;14.03;;;;;;;21.72;76.48;99028.64;1709428;84;21106;-68
2021/07/29 03:54:51;;;;;;;15.90;14.28;;;;;;;21.92;75.67;99023.17;1719782;82;21525;-68
2021/07/29 03:57:19;;;;;;;22.35;14.93;;;;;;;22.02;75.10;99028.13;1713593;82;21067;-68
2021/07/29 03:59:46;;;;;;;17.95;14.07;;;;;;;22.13;74.88;99024.41;1724101;82;20984;-67
2021/07/29 04:02:12;;;;;;;18.15;14.95;;;;;;;22.35;74.30;99017.32;1727455;82;21047;-66
2021/07/29 04:04:39;;;;;;;18.95;14.43;;;;;;;22.57;74.03;99017.92;1730017;82;21031;-67
2021/07/29 04:07:06;;;;;;;21.85;14.60;;;;;;;22.81;73.59;99016.81;1745773;82;21015;-66
2021/07/29 04:09:33;;;;;;;17.27;13.98;;;;;;;23.01;72.32;99021.69;1750623;82;21471;-66
2021/07/29 04:12:00;;;;;;;15.53;12.45;;;;;;;23.14;71.74;99035.00;1727698;82;21047;-67
2021/07/29 04:14:27;;;;;;;15.00;13.10;;;;;;;23.37;71.40;99023.87;1735802;82;20987;-67
2021/07/29 04:16:54;;;;;;;15.45;13.65;;;;;;;23.75;70.81;99018.69;1744838;82;21098;-66
2021/07/29 04:19:21;;;;;;;16.12;13.50;;;;;;;24.13;69.77;99017.02;1735049;82;20979;-66
2021/07/29 04:21:49;;;;;;;19.23;13.65;;;;;;;24.41;68.46;99022.72;1748861;82;21039;-68
2021/07/29 04:24:17;;;;;;;15.32;13.58;;;;;;;24.64;67.42;99015.00;1738708;82;20988;-71
2021/07/29 04:26:44;;;;;;;14.18;12.68;;;;;;;24.86;66.88;99011.28;1749384;82;21043;-69
2021/07/29 04:29:11;;;;;;;15.43;12.88;;;;;;;25.17;65.32;99015.51;1723657;82;21505;-68
2021/07/29 04:31:37;;;;;;;14.53;12.55;;;;;;;25.68;64.83;99020.45;1743454;82;21039;-68
2021/07/29 04:34:04;;;;;;;16.57;13.20;;;;;;;25.68;64.83;99020.45;1727283;82;21082;-68
2021/07/29 04:36:38;;;;;;;16.73;13.62;;;;;;;25.94;63.61;99025.57;1722989;83;21090;-68
2021/07/29 04:39:04;;;;;;;14.30;12.58;;;;;;;26.15;62.68;99025.08;1698012;83;21050;-69
2021/07/29 04:41:31;;;;;;;14.05;12.47;;;;;;;26.40;62.20;99027.17;1746031;82;21561;-68
2021/07/29 04:43:58;;;;;;;14.38;12.43;;;;;;;26.68;61.95;99025.85;1751203;82;20938;-68
2021/07/29 04:46:25;;;;;;;14.07;12.45;;;;;;;26.89;60.11;99025.14;1750334;82;21071;-68
2021/07/29 04:48:51;;;;;;;13.85;12.40;;;;;;;27.06;60.29;99028.53;1753018;82;21509;-68
2021/07/29 04:51:17;;;;;;;16.65;12.50;;;;;;;27.29;58.95;99026.13;1752748;82;21081;-68
2021/07/29 04:53:44;;;;;;;14.03;11.50;;;;;;;27.44;58.44;99012.34;1724042;82;20983;-68
2021/07/29 04:56:10;;;;;;;13.45;10.88;;;;;;;27.61;58.03;99017.13;1727015;82;21098;-68
2021/07/29 04:58:37;;;;;;;12.18;10.88;;;;;;;27.80;57.11;99014.50;1754604;82;21478;-68
2021/07/29 05:01:04;;;;;;;13.70;9.80;;;;;;;27.93;56.49;99014.25;1737831;82;21075;-68
2021/07/29 05:03:31;;;;;;;12.85;10.50;;;;;;;28.01;56.50;99008.83;1728887;82;21525;-68
2021/07/29 05:08:37;;;;;;;12.00;9.93;;;;;;;28.57;56.05;98998.57;1814257;79;22982;-66
2021/07/29 05:11:04;;;;;;;10.60;8.48;;;;;;;28.75;55.87;99001.28;1782653;80;21062;-68
2021/07/29 05:13:32;;;;;;;9.43;8.18;;;;;;;28.95;54.33;98995.32;1761371;81;21624;-67
2021/07/29 05:16:07;;;;;;;9.98;7.70;;;;;;;29.06;52.88;98995.44;1757113;81;21062;-67
2021/07/29 05:18:34;;;;;;;12.53;8.45;;;;;;;29.21;53.02;98989.70;1732991;83;21023;-68
2021/07/29 05:21:05;;;;;;;10.58;8.65;;;;;;;29.47;52.59;98989.09;1741364;81;21564;-67
2021/07/29 05:23:32;;;;;;;11.43;8.90;;;;;;;29.51;52.64;98995.47;1733347;81;21066;-67
2021/07/29 05:25:58;;;;;;;11.48;9.20;;;;;;;29.59;51.58;98996.97;1758379;81;21501;-67
2021/07/29 05:28:25;;;;;;;10.08;9.05;;;;;;;29.64;51.83;98990.31;1700770;84;21074;-67
2021/07/29 05:30:51;;;;;;;9.38;7.92;;;;;;;29.72;51.97;98987.43;1699755;83;21125;-67
2021/07/29 05:33:18;;;;;;;12.23;8.35;;;;;;;29.79;52.03;98990.95;1722130;83;21557;-67
2021/07/29 05:35:44;;;;;;;10.23;7.62;;;;;;;29.94;50.91;98985.38;1724330;83;20947;-67
2021/07/29 05:38:11;;;;;;;9.13;7.28;;;;;;;30.00;49.47;98982.91;1724178;83;21007;-67
2021/07/29 05:40:38;;;;;;;9.73;7.05;;;;;;;30.03;49.58;98984.88;1710663;83;20983;-67
2021/07/29 05:43:04;;;;;;;9.78;7.28;;;;;;;30.07;47.17;98984.23;1724154;83;21572;-67
2021/07/29 05:45:33;;;;;;;8.15;7.28;;;;;;;30.02;47.56;98975.66;1724269;83;21067;-67
2021/07/29 05:48:00;;;;;;;8.25;7.33;;;;;;;29.97;47.55;98974.70;1724184;83;21054;-67
2021/07/29 05:50:26;;;;;;;11.70;7.92;;;;;;;30.01;47.30;98973.26;1723094;83;21078;-68
2021/07/29 05:52:53;;;;;;;10.15;7.95;;;;;;;29.96;47.64;98972.34;1673171;84;21106;-67
2021/07/29 05:55:19;;;;;;;10.63;7.72;;;;;;;30.00;48.05;98968.28;1673480;84;21045;-67
2021/07/29 05:57:45;;;;;;;12.85;9.78;;;;;;;30.10;48.93;98973.56;1700605;84;21094;-68
2021/07/29 06:00:14;;;;;;;12.00;9.58;;;;;;;30.20;48.00;98969.02;1708638;83;21047;-67
2021/07/29 06:02:41;;;;;;;16.57;11.18;;;;;;;30.18;48.77;98963.84;1724285;83;21109;-68
2021/07/29 06:05:09;;;;;;;13.68;10.53;;;;;;;30.16;48.82;98959.23;1678868;83;21026;-67
2021/07/29 06:07:35;;;;;;;15.53;11.25;;;;;;;30.12;49.15;98971.11;1693256;83;21126;-67
2021/07/29 06:10:01;;;;;;;13.38;10.45;;;;;;;29.97;49.57;98970.50;1713573;83;21113;-67
2021/07/29 06:12:27;;;;;;;14.93;10.28;;;;;;;29.96;49.99;98977.34;1747231;81;21050;-67
2021/07/29 06:14:55;;;;;;;13.28;9.55;;;;;;;30.02;50.03;98980.47;1739874;81;21500;-68
2021/07/29 06:17:28;;;;;;;12.10;9.95;;;;;;;30.20;50.71;98988.06;1753018;81;21056;-67
2021/07/29 06:19:53;;;;;;;10.40;9.30;;;;;;;30.53;50.68;98985.03;1684461;85;21551;-67
2021/07/29 06:22:20;;;;;;;11.40;10.20;;;;;;;30.79;49.72;98982.81;1659276;84;21146;-67
2021/07/29 06:24:46;;;;;;;11.57;9.55;;;;;;;30.99;48.80;98987.95;1688257;84;21082;-68
2021/07/29 06:27:12;;;;;;;13.00;10.18;;;;;;;31.07;48.41;98983.78;1682345;84;21071;-67
2021/07/29 06:29:39;;;;;;;13.35;9.08;;;;;;;31.08;48.52;98976.95;1696045;84;21014;-67
2021/07/29 06:32:06;;;;;;;12.90;9.45;;;;;;;31.17;48.86;98977.81;1701123;84;21565;-67
2021/07/29 06:34:36;;;;;;;13.22;10.38;;;;;;;31.32;48.86;98977.73;1687548;84;21039;-67
2021/07/29 06:37:03;;;;;;;14.35;10.58;;;;;;;31.54;49.53;98983.18;1685273;84;21067;-68
2021/07/29 06:39:30;;;;;;;11.20;9.95;;;;;;;31.78;47.85;98981.74;1685375;84;21529;-67
2021/07/29 06:41:56;;;;;;;12.33;9.70;;;;;;;31.98;47.16;98976.29;1689468;84;21162;-68
2021/07/29 06:44:22;;;;;;;11.60;9.33;;;;;;;31.91;48.05;98976.44;1693688;84;21616;-68
2021/07/29 06:46:49;;;;;;;10.88;8.58;;;;;;;32.08;48.33;98979.34;1698638;84;21072;-67
2021/07/29 06:49:16;;;;;;;10.05;8.95;;;;;;;32.24;45.73;98972.37;1678814;85;22105;-67
2021/07/29 06:51:43;;;;;;;9.75;8.33;;;;;;;32.26;45.61;98967.08;1729225;83;21125;-67
2021/07/29 06:54:09;;;;;;;11.63;8.73;;;;;;;32.40;45.72;98963.34;1728790;83;21117;-67
2021/07/29 06:56:35;;;;;;;10.30;8.50;;;;;;;32.59;44.58;98968.78;1749182;81;21637;-67
2021/07/29 06:59:02;;;;;;;10.63;8.08;;;;;;;32.60;44.46;98963.30;1749902;81;21082;-67
2021/07/29 07:01:29;;;;;;;11.75;9.30;;;;;;;32.75;44.29;98958.92;1745059;81;21549;-68
2021/07/29 07:03:56;;;;;;;11.35;8.40;;;;;;;32.80;43.49;98969.68;1725796;81;21007;-68
2021/07/29 07:06:22;;;;;;;11.33;8.75;;;;;;;32.79;44.43;98973.72;1757323;81;21560;-68
2021/07/29 07:08:49;;;;;;;10.20;8.98;;;;;;;32.93;44.79;98981.83;1694774;83;21073;-68
2021/07/29 07:11:17;;;;;;;10.82;9.73;;;;;;;33.15;44.03;98980.72;1719248;82;21595;-67
2021/07/29 07:13:46;;;;;;;10.93;9.78;;;;;;;33.31;43.92;98977.87;1738007;82;21041;-68
2021/07/29 07:16:13;;;;;;;11.53;10.13;;;;;;;33.36;44.79;98977.95;1691013;84;21679;-67
2021/07/29 07:18:40;;;;;;;10.68;9.58;;;;;;;33.25;44.72;98978.23;1693289;84;21035;-67
2021/07/29 07:21:08;;;;;;;13.70;10.70;;;;;;;33.01;44.39;98973.38;1683336;84;21071;-68
2021/07/29 07:23:35;;;;;;;15.15;10.95;;;;;;;33.04;45.92;98978.75;1699570;84;21096;-68
2021/07/29 07:26:02;;;;;;;12.23;11.00;;;;;;;33.12;45.15;98987.24;1695780;84;21060;-68
2021/07/29 07:28:29;;;;;;;12.55;10.55;;;;;;;33.05;45.02;98976.11;1699975;84;21569;-71
2021/07/29 07:30:55;;;;;;;11.68;10.58;;;;;;;32.94;45.49;98980.61;1664627;84;21046;-68
2021/07/29 07:33:21;;;;;;;12.07;10.88;;;;;;;33.02;46.23;98972.13;1680925;83;21572;-69
2021/07/29 07:35:52;;;;;;;12.05;10.82;;;;;;;33.14;46.07;98974.89;1731959;82;21011;-68
2021/07/29 07:38:20;;;;;;;12.53;10.70;;;;;;;33.26;45.97;98976.21;1739048;82;21094;-68
2021/07/29 07:40:46;;;;;;;10.13;9.15;;;;;;;33.33;44.97;98977.44;1749732;82;21035;-68
2021/07/29 07:43:13;;;;;;;11.43;10.00;;;;;;;33.28;44.74;98976.55;1737321;82;21090;-68
2021/07/29 07:45:39;;;;;;;11.30;9.50;;;;;;;33.30;44.41;98978.33;1727682;82;21079;-68
2021/07/29 07:48:09;;;;;;;10.38;9.28;;;;;;;33.31;44.13;98973.63;1746928;82;21620;-68
2021/07/29 07:50:39;;;;;;;9.13;8.20;;;;;;;33.27;44.47;98979.19;1733551;82;20983;-67
2021/07/29 07:53:06;;;;;;;11.57;8.65;;;;;;;33.29;44.10;98968.27;1748769;82;21066;-70
2021/07/29 07:55:34;;;;;;;11.57;8.75;;;;;;;33.46;43.96;98963.56;1749146;82;21015;-67
2021/07/29 07:58:00;;;;;;;9.45;8.45;;;;;;;33.57;43.36;98961.86;1721371;82;21668;-67
2021/07/29 08:00:27;;;;;;;10.18;9.10;;;;;;;33.50;42.80;98962.86;1720245;82;21018;-68
2021/07/29 08:02:54;;;;;;;10.13;8.65;;;;;;;33.42;43.77;98958.63;1749832;82;21071;-67
2021/07/29 08:05:20;;;;;;;9.33;8.33;;;;;;;33.40;44.59;98960.32;1749594;82;21023;-67
2021/07/29 08:07:46;;;;;;;11.97;8.45;;;;;;;33.49;44.89;98946.36;1746099;81;21073;-67
2021/07/29 08:10:15;;;;;;;11.05;7.90;;;;;;;33.48;43.64;98949.80;1752359;82;21038;-68
2021/07/29 08:12:41;;;;;;;8.73;7.80;;;;;;;33.28;44.06;98951.96;1701177;82;21142;-67
2021/07/29 08:15:09;;;;;;;9.18;7.85;;;;;;;33.23;44.75;98943.27;1749447;82;21069;-67
2021/07/29 08:17:36;;;;;;;9.43;7.87;;;;;;;33.34;44.12;98952.20;1639048;85;21079;-68
2021/07/29 08:20:05;;;;;;;8.38;7.53;;;;;;;33.37;44.08;98954.16;1675788;85;21059;-68
2021/07/29 08:22:32;;;;;;;10.20;7.53;;;;;;;33.35;43.39;98949.56;1701234;83;21090;-68
2021/07/29 08:24:58;;;;;;;10.43;7.78;;;;;;;33.10;43.90;98950.80;1688453;85;21046;-68
2021/07/29 08:27:25;;;;;;;9.33;6.83;;;;;;;32.93;44.00;98951.44;1683512;84;21074;-68
2021/07/29 08:29:51;;;;;;;8.50;6.97;;;;;;;32.85;44.23;98947.20;1673273;85;21031;-68
2021/07/29 08:32:18;;;;;;;7.72;7.00;;;;;;;32.82;44.70;98959.36;1676169;84;21090;-68
2021/07/29 08:34:44;;;;;;;9.93;7.15;;;;;;;32.83;45.68;98956.73;1697716;83;21022;-69
2021/07/29 08:37:13;;;;;;;12.55;6.92;;;;;;;32.81;46.71;98956.36;1699457;83;21094;-68
2021/07/29 08:39:40;;;;;;;11.35;7.12;;;;;;;32.75;45.42;98956.72;1688535;85;20971;-67
2021/07/29 08:42:08;;;;;;;10.40;6.87;;;;;;;32.71;45.06;98956.00;1685117;84;21556;-68
2021/07/29 08:44:34;;;;;;;13.80;7.30;;;;;;;32.78;45.37;98953.81;1688907;83;21715;-68
2021/07/29 08:47:01;;;;;;;13.00;7.30;;;;;;;32.79;45.58;98946.16;1693732;84;21110;-68
2021/07/29 08:49:27;;;;;;;9.43;6.87;;;;;;;32.74;46.69;98955.13;1664216;85;21541;-68
2021/07/29 08:51:59;;;;;;;10.05;7.17;;;;;;;32.76;45.81;98949.24;1686587;85;21077;-68
2021/07/29 08:54:27;;;;;;;10.10;6.70;;;;;;;32.89;46.11;98951.52;1688304;84;21473;-69
2021/07/29 08:56:53;;;;;;;9.75;6.70;;;;;;;33.13;45.89;98944.30;1687559;85;21059;-67
2021/07/29 08:59:20;;;;;;;9.28;7.08;;;;;;;33.28;45.21;98946.94;1692173;84;21088;-67
2021/07/29 09:01:53;;;;;;;11.80;7.28;;;;;;;33.36;44.98;98947.72;1716118;83;21066;-68
2021/07/29 09:04:20;;;;;;;11.57;7.60;;;;;;;33.43;44.40;98944.71;1694200;84;21554;-67
2021/07/29 09:07:01;;;;;;;10.95;7.03;;;;;;;33.37;43.85;98947.11;1684125;85;21111;-67
2021/07/29 09:10:00;;;;;;;8.20;6.08;;;;;;;33.30;43.89;98941.02;1662578;84;21007;-67
2021/07/29 09:12:26;;;;;;;9.83;6.35;;;;;;;33.32;43.03;98933.53;1665887;86;21668;-67
2021/07/29 09:14:54;;;;;;;11.20;5.90;;;;;;;33.27;42.41;98923.58;1678109;85;20995;-68
2021/07/29 09:17:21;;;;;;;12.07;6.37;;;;;;;33.33;43.29;98922.44;1672252;86;21600;-68
2021/07/29 09:19:51;;;;;;;9.75;5.40;;;;;;;33.39;41.76;98916.42;1660703;86;21574;-68
2021/07/29 09:22:25;;;;;;;9.98;5.20;;;;;;;33.53;41.42;98913.20;1643774;86;21047;-68
2021/07/29 09:25:05;;;;;;;8.85;5.67;;;;;;;33.64;41.79;98904.47;1671486;86;21407;-68
2021/07/29 09:27:42;;;;;;;10.93;6.05;;;;;;;33.73;40.80;98909.62;1660642;86;21134;-68
2021/07/29 09:30:16;;;;;;;11.57;6.17;;;;;;;33.77;39.58;98907.48;1669175;86;20989;-68
2021/07/29 09:33:06;;;;;;;10.15;5.50;;;;;;;33.82;39.35;98910.39;1669446;85;21068;-68
2021/07/29 09:35:51;;;;;;;10.88;5.33;;;;;;;33.82;39.39;98900.51;1677138;84;21474;-67
2021/07/29 09:38:30;;;;;;;13.18;5.83;;;;;;;33.70;40.28;98904.88;1661057;86;21044;-67
2021/07/29 09:41:02;;;;;;;10.48;5.60;;;;;;;33.66;40.33;98906.23;1673260;86;21070;-67
2021/07/29 09:43:31;;;;;;;10.23;4.92;;;;;;;33.43;40.68;98906.62;1673031;86;21074;-67
2021/07/29 09:46:00;;;;;;;10.93;5.50;;;;;;;33.26;41.14;98905.09;1662843;85;21043;-67
2021/07/29 09:48:26;;;;;;;11.55;4.95;;;;;;;33.25;41.98;98903.50;1672721;86;21039;-67
2021/07/29 09:51:00;;;;;;;9.18;4.50;;;;;;;33.30;41.20;98903.59;1661187;85;21099;-67
2021/07/29 09:53:33;;;;;;;13.55;4.72;;;;;;;33.39;40.12;98902.31;1664322;86;21031;-67
2021/07/29 09:56:01;;;;;;;10.70;4.58;;;;;;;33.45;39.99;98895.67;1661768;86;21080;-67
2021/07/29 09:58:27;;;;;;;10.75;5.03;;;;;;;33.43;40.55;98891.72;1645059;87;21042;-67
2021/07/29 10:00:53;;;;;;;9.25;4.45;;;;;;;33.53;40.17;98897.69;1661706;86;21131;-67
2021/07/29 10:03:22;;;;;;;10.23;4.85;;;;;;;33.61;40.12;98894.05;1649028;86;20987;-67
2021/07/29 10:06:00;;;;;;;12.10;4.60;;;;;;;33.68;40.35;98894.66;1673875;86;21526;-67
2021/07/29 10:08:36;;;;;;;9.08;4.90;;;;;;;33.68;39.42;98891.84;1662221;84;21012;-67
2021/07/29 10:11:06;;;;;;;13.45;5.03;;;;;;;33.71;40.25;98890.94;1663664;86;21075;-67
2021/07/29 10:13:38;;;;;;;11.97;5.08;;;;;;;33.79;40.22;98888.09;1684335;85;21514;-67
2021/07/29 10:16:05;;;;;;;12.03;4.58;;;;;;;33.76;39.26;98888.20;1690636;85;21067;-67
2021/07/29 10:18:57;;;;;;;9.75;4.45;;;;;;;33.71;38.26;98886.71;1684506;85;21055;-67
2021/07/29 10:21:29;;;;;;;10.00;3.90;;;;;;;33.74;38.87;98887.83;1686175;85;21071;-67
2021/07/29 10:24:00;;;;;;;10.40;3.98;;;;;;;33.69;38.22;98886.38;1679503;85;21083;-67
2021/07/29 10:26:30;;;;;;;10.80;4.28;;;;;;;33.57;38.18;98887.09;1689379;85;21056;-67
2021/07/29 10:29:27;;;;;;;10.45;4.17;;;;;;;33.51;38.43;98877.60;1690827;85;21068;-67
2021/07/29 10:31:56;;;;;;;7.92;3.55;;;;;;;33.53;39.67;98882.96;1673226;85;21063;-67
2021/07/29 10:34:26;;;;;;;9.90;3.90;;;;;;;33.65;38.50;98882.07;1691075;85;21067;-67
2021/07/29 10:36:57;;;;;;;8.68;3.87;;;;;;;33.69;37.93;98870.86;1691275;85;21087;-68
2021/07/29 10:39:23;;;;;;;10.80;4.17;;;;;;;33.69;37.99;98872.27;1655633;85;21040;-68
2021/07/29 10:42:00;;;;;;;8.73;3.72;;;;;;;33.69;38.54;98869.45;1684465;85;21051;-68
2021/07/29 10:44:38;;;;;;;7.85;3.62;;;;;;;33.52;39.51;98835.43;1685109;85;21094;-67
2021/07/29 10:47:06;;;;;;;10.32;4.35;;;;;;;33.76;38.78;98862.18;1683068;84;21036;-67
2021/07/29 10:49:59;;;;;;;9.18;4.12;;;;;;;33.85;39.15;98860.88;1693396;84;21036;-68
2021/07/29 10:52:25;;;;;;;10.43;4.00;;;;;;;33.86;38.68;98856.03;1695034;84;21044;-68
2021/07/29 10:54:52;;;;;;;9.18;4.08;;;;;;;33.81;38.62;98853.75;1708215;83;21653;-68
2021/07/29 10:57:19;;;;;;;9.83;4.12;;;;;;;33.85;38.31;98858.06;1685130;84;21063;-68
2021/07/29 10:59:45;;;;;;;9.60;3.90;;;;;;;33.84;37.78;98854.27;1680057;85;21039;-68
2021/07/29 11:02:22;;;;;;;9.25;3.98;;;;;;;33.84;37.97;98862.73;1681888;84;21075;-69
2021/07/29 11:04:58;;;;;;;9.20;3.65;;;;;;;33.90;37.52;98859.55;1678171;84;21601;-68
2021/07/29 11:07:27;;;;;;;9.00;3.95;;;;;;;33.93;36.98;98856.61;1719767;83;21074;-69
2021/07/29 11:10:06;;;;;;;8.78;4.33;;;;;;;33.93;37.06;98859.44;1761805;81;21087;-67
2021/07/29 11:12:35;;;;;;;13.13;3.92;;;;;;;33.85;36.40;98850.20;1757880;81;21075;-68
2021/07/29 11:15:06;;;;;;;12.95;4.10;;;;;;;33.77;37.36;98852.45;1755777;81;21059;-69
2021/07/29 11:17:33;;;;;;;11.73;4.47;;;;;;;33.85;38.78;98851.00;1711927;82;21066;-69
2021/07/29 11:19:59;;;;;;;9.95;4.35;;;;;;;33.76;39.32;98845.86;1748054;81;21023;-68
2021/07/29 11:22:25;;;;;;;11.03;4.75;;;;;;;33.70;39.17;98847.64;1739960;81;21031;-69
2021/07/29 11:24:54;;;;;;;10.78;3.70;;;;;;;33.71;39.05;98845.79;1690190;84;21072;-68
2021/07/29 11:27:31;;;;;;;9.40;4.08;;;;;;;33.74;40.06;98844.09;1743965;81;21527;-69
2021/07/29 11:29:59;;;;;;;9.50;4.17;;;;;;;33.76;40.11;98837.39;1760200;81;21032;-69